METAR AND TAF INFORMATION
METAR FOR KDEN
KDEN 260253Z 25013G20KT 10SM FEW220 13/M12 A2988 RMK AO2 SLP081 T01281117 50001
KDEN 260153Z 26014G20KT 10SM FEW100 FEW220 13/M13 A2988 RMK AO2 PK WND 24028/0100 SLP093 T01281133
KDEN 260053Z 27016G26KT 10SM FEW100 FEW220 14/M14 A2988 RMK AO2 PK WND 26028/0036 SLP080 T01441144
KDEN 260304Z 2603/2706 24012G20KT P6SM FEW220
FM260800 23015G25KT P6SM SCT200
FM261600 26026G40KT P6SM FEW080 SCT180
FM270100 25012KT P6SM FEW080 SCT180

 AIRPORT MAP

 RUNWAY INFORMATION
Runway 07 Runway length 12000 ft Runway width 150 ft
Runway elevation 5347 ft Runway displaced threshold 0 ft Runway heading 91
Runway 25 Runway length 12000 ft Runway width 150 ft
Runway elevation 5352 ft Runway displaced threshold 0 ft Runway heading 271
Runway 08 Runway length 12000 ft Runway width 150 ft
Runway elevation 5351 ft Runway displaced threshold 0 ft Runway heading 91
Runway 26 Runway length 12000 ft Runway width 150 ft
Runway elevation 5291 ft Runway displaced threshold 0 ft Runway heading 271
Runway 16L Runway length 12000 ft Runway width 150 ft
Runway elevation 5347 ft Runway displaced threshold 0 ft Runway heading 181
Runway 34R Runway length 12000 ft Runway width 150 ft
Runway elevation 5351 ft Runway displaced threshold 0 ft Runway heading 1
Runway 16R Runway length 16000 ft Runway width 200 ft
Runway elevation 5319 ft Runway displaced threshold 0 ft Runway heading 181
Runway 34L Runway length 16000 ft Runway width 200 ft
Runway elevation 5324 ft Runway displaced threshold 0 ft Runway heading 1
Runway 17L Runway length 12000 ft Runway width 150 ft
Runway elevation 5325 ft Runway displaced threshold 0 ft Runway heading 181
Runway 35R Runway length 12000 ft Runway width 150 ft
Runway elevation 5367 ft Runway displaced threshold 0 ft Runway heading 1
Runway 17R Runway length 12000 ft Runway width 150 ft
Runway elevation 5374 ft Runway displaced threshold 0 ft Runway heading 181
Runway 35L Runway length 12000 ft Runway width 150 ft
Runway elevation 5431 ft Runway displaced threshold 0 ft Runway heading 1

 AIRPORT FREQUENCIES
Type APP Name APP Frequency 119.3 MHZ
Type ATIS Name ATIS Frequency 125.6 MHZ
Type CLD Name CLNC DEL Frequency 118.75 MHZ
Type DEP Name DEP Frequency 126.1 MHZ
Type GND Name GND Frequency 121.85 MHZ
Type RDO Name RDO Frequency 123.65 MHZ
Type TWR Name TWR Frequency 124.3 MHZ
Type UNIC Name UNICOM Frequency 122.95 MHZ

 AIRPORT NEAR NAVIGATION AIDS
Type VORTAC Name Mile High Frequency 114700 KHZ

-